Time;durP1;ratioP1;P1;durP2;ratioP2;P2;SDS_P1;SDS_P2;PMS_P1;PMS_P2;Temp;Humidity;BMP_temperature;BMP_pressure;BME280_temperature;BME280_humidity;BME280_pressure;Samples;Min_cycle;Max_cycle;Signal;HPM_P1;HPM_P2
2022/12/21 00:01:12;;;;;;;71.60;32.25;;;;;;;2.73;77.65;101175.94;5059849;28;20043;-65
2022/12/21 00:03:38;;;;;;;67.20;33.45;;;;;;;2.73;77.29;101175.94;5060134;28;20306;-64
2022/12/21 00:06:05;;;;;;;68.53;33.25;;;;;;;2.59;78.03;101170.56;5059425;28;20051;-64
2022/12/21 00:08:41;;;;;;;60.70;33.72;;;;;;;2.64;78.11;101177.25;5058976;28;20110;-64
2022/12/21 00:11:08;;;;;;;65.53;33.72;;;;;;;2.61;78.03;101172.19;5059365;28;20118;-66
2022/12/21 00:13:34;;;;;;;63.45;31.92;;;;;;;2.64;77.73;101169.41;5059235;28;20041;-65
2022/12/21 00:16:02;;;;;;;53.67;29.02;;;;;;;2.71;78.09;101169.94;5059725;28;20038;-65
2022/12/21 00:18:27;;;;;;;54.08;29.42;;;;;;;2.65;77.66;101158.03;5059451;28;20211;-64
2022/12/21 00:20:58;;;;;;;50.30;27.65;;;;;;;2.57;78.00;101154.94;5059599;28;20041;-65
2022/12/21 00:23:23;;;;;;;50.97;26.88;;;;;;;2.65;77.90;101158.03;5059159;28;20522;-69
2022/12/21 00:25:49;;;;;;;46.58;26.10;;;;;;;2.69;77.45;101154.34;5058200;28;20318;-70
2022/12/21 00:28:14;;;;;;;46.25;26.95;;;;;;;2.75;77.14;101153.19;5058157;28;20353;-71
2022/12/21 00:30:40;;;;;;;48.17;26.98;;;;;;;2.79;76.75;101155.56;5058807;28;20397;-69
2022/12/21 00:33:05;;;;;;;48.88;25.50;;;;;;;2.86;76.22;101141.25;5059085;28;20037;-69
2022/12/21 00:35:30;;;;;;;56.08;28.10;;;;;;;2.92;75.85;101147.94;5059077;28;20128;-69
2022/12/21 00:37:56;;;;;;;58.70;27.73;;;;;;;2.98;76.25;101146.75;5059085;28;20068;-69
2022/12/21 00:40:21;;;;;;;53.00;29.10;;;;;;;2.95;75.75;101147.78;5058774;28;20566;-71
2022/12/21 00:42:47;;;;;;;56.50;28.85;;;;;;;2.97;75.70;101145.06;5058686;28;20037;-67
2022/12/21 00:45:12;;;;;;;57.90;29.63;;;;;;;2.96;75.26;101144.22;5058782;28;20036;-68
2022/12/21 00:47:37;;;;;;;46.40;26.40;;;;;;;2.93;75.62;101143.53;5058671;28;20247;-71
2022/12/21 00:50:03;;;;;;;44.70;24.20;;;;;;;2.79;75.95;101133.78;5059054;28;20037;-71
2022/12/21 00:52:29;;;;;;;40.70;23.38;;;;;;;2.69;75.90;101135.19;5058733;28;20040;-69
2022/12/21 00:54:54;;;;;;;47.78;25.48;;;;;;;2.62;76.07;101129.41;5058837;28;20043;-69
2022/12/21 00:57:20;;;;;;;49.15;24.52;;;;;;;2.60;76.20;101122.56;5058499;28;20075;-69
2022/12/21 00:59:45;;;;;;;43.97;23.75;;;;;;;2.64;76.49;101116.25;5058578;28;20037;-65
2022/12/21 01:02:10;;;;;;;44.90;23.83;;;;;;;2.65;76.36;101115.34;5058255;28;20322;-71
2022/12/21 01:04:36;;;;;;;48.58;25.88;;;;;;;2.66;76.32;101115.25;5040277;28;20764;-69
2022/12/21 01:07:01;;;;;;;46.83;25.05;;;;;;;2.65;75.91;101112.72;5057772;28;20037;-69
2022/12/21 01:09:26;;;;;;;46.13;24.00;;;;;;;2.67;76.27;101111.72;5057719;28;20071;-69
2022/12/21 01:11:52;;;;;;;44.28;23.50;;;;;;;2.57;75.64;101107.88;5057849;28;20043;-70
2022/12/21 01:14:17;;;;;;;40.03;22.75;;;;;;;2.61;75.80;101100.72;5058395;28;20104;-70
2022/12/21 01:16:43;;;;;;;42.60;24.45;;;;;;;2.50;76.26;101109.97;5058243;28;20037;-69
2022/12/21 01:19:09;;;;;;;44.53;23.65;;;;;;;2.43;76.33;101098.13;5058057;28;20236;-69
2022/12/21 01:21:35;;;;;;;45.83;24.05;;;;;;;2.43;76.30;101100.75;5058050;28;20041;-69
2022/12/21 01:24:00;;;;;;;44.90;24.58;;;;;;;2.44;76.29;101091.13;5057964;28;20033;-69
2022/12/21 01:26:27;;;;;;;43.40;23.35;;;;;;;2.53;76.13;101088.03;5058143;28;20345;-71
2022/12/21 01:28:52;;;;;;;44.00;23.92;;;;;;;2.56;75.94;101091.34;5058428;28;20547;-71
2022/12/21 01:31:18;;;;;;;51.17;26.27;;;;;;;2.61;75.62;101087.66;5057977;28;20303;-69
2022/12/21 01:33:44;;;;;;;46.63;26.00;;;;;;;2.57;75.19;101076.50;5057196;28;20330;-69
2022/12/21 01:36:12;;;;;;;52.08;26.00;;;;;;;2.55;75.86;101087.03;5057173;28;20040;-70
2022/12/21 01:38:40;;;;;;;44.75;24.77;;;;;;;2.56;75.57;101087.88;5057518;28;20064;-70
2022/12/21 01:41:07;;;;;;;39.97;23.05;;;;;;;2.61;75.31;101074.56;5057596;28;20055;-69
2022/12/21 01:43:39;;;;;;;46.58;23.73;;;;;;;2.60;75.10;101080.72;5057321;28;20087;-69
2022/12/21 01:46:08;;;;;;;43.20;24.63;;;;;;;2.59;75.22;101074.66;5058267;28;20063;-69
2022/12/21 01:48:39;;;;;;;41.03;21.98;;;;;;;2.55;75.15;101076.59;5057805;28;20514;-71
2022/12/21 01:51:06;;;;;;;41.50;22.33;;;;;;;2.61;75.83;101075.41;5057560;28;20037;-71
2022/12/21 01:53:39;;;;;;;39.78;21.85;;;;;;;2.65;74.83;101070.88;5056974;28;20037;-69
2022/12/21 01:56:08;;;;;;;42.22;21.98;;;;;;;2.66;75.05;101062.97;5057359;28;20056;-69
2022/12/21 01:58:35;;;;;;;38.97;21.77;;;;;;;2.57;74.83;101063.44;5057415;28;20043;-71
2022/12/21 02:01:02;;;;;;;43.03;22.08;;;;;;;2.54;75.13;101064.44;5057031;28;20033;-70
2022/12/21 02:03:33;;;;;;;38.88;20.70;;;;;;;2.47;75.29;101059.59;5057302;28;20321;-69
2022/12/21 02:06:10;;;;;;;42.15;22.45;;;;;;;2.39;75.20;101054.75;5057334;28;20037;-68
2022/12/21 02:08:36;;;;;;;43.40;22.80;;;;;;;2.40;74.98;101061.69;5057009;28;20056;-65
2022/12/21 02:11:03;;;;;;;44.53;24.38;;;;;;;2.33;75.10;101051.63;5057670;28;20385;-65
2022/12/21 02:13:29;;;;;;;43.97;23.90;;;;;;;2.37;75.22;101059.22;5057272;28;20053;-70
2022/12/21 02:16:07;;;;;;;42.78;23.70;;;;;;;2.35;74.97;101057.59;5057513;28;20316;-69
2022/12/21 02:18:42;;;;;;;40.30;22.60;;;;;;;2.26;75.64;101053.69;5057269;28;20055;-69
2022/12/21 02:21:21;;;;;;;39.58;21.65;;;;;;;2.27;75.70;101046.69;5056507;28;20044;-71
2022/12/21 02:24:08;;;;;;;41.97;21.30;;;;;;;2.26;75.64;101051.09;5056863;28;20033;-70
2022/12/21 02:26:52;;;;;;;41.63;21.33;;;;;;;2.30;75.55;101046.53;5057663;28;20040;-70
2022/12/21 02:29:32;;;;;;;32.80;20.35;;;;;;;2.26;75.42;101031.94;5057534;28;20041;-69
2022/12/21 02:32:19;;;;;;;36.75;19.95;;;;;;;2.10;75.94;101037.94;5057405;28;20385;-69
2022/12/21 02:35:12;;;;;;;40.03;20.75;;;;;;;2.19;76.02;101041.84;5056505;28;20048;-70
2022/12/21 02:37:52;;;;;;;49.00;26.48;;;;;;;2.20;75.45;101033.09;5056752;28;20033;-69
2022/12/21 02:40:35;;;;;;;44.58;23.30;;;;;;;2.18;75.90;101037.56;5057107;28;20048;-69
2022/12/21 02:46:33;;;;;;;35.45;21.25;;;;;;;2.11;76.49;101029.19;5056809;28;20083;-70
2022/12/21 02:49:49;;;;;;;41.92;20.52;;;;;;;2.23;75.92;101030.31;5010668;28;20041;-69
2022/12/21 02:52:23;;;;;;;36.67;18.48;;;;;;;2.26;76.06;101027.56;5014781;28;20259;-69
2022/12/21 02:54:56;;;;;;;32.05;17.17;;;;;;;2.35;75.58;101023.63;5056466;28;20368;-71
2022/12/21 02:57:33;;;;;;;33.03;17.45;;;;;;;2.42;75.03;101019.78;5056858;28;20036;-71
2022/12/21 03:00:01;;;;;;;27.77;16.17;;;;;;;2.44;74.55;101021.38;5056660;28;20056;-69
2022/12/21 03:06:19;;;;;;;35.38;18.38;;;;;;;2.27;74.89;101024.03;5056574;28;20497;-70
2022/12/21 03:09:22;;;;;;;36.85;18.50;;;;;;;2.35;74.61;101021.03;5056796;28;20343;-71
2022/12/21 03:12:00;;;;;;;37.28;18.42;;;;;;;2.42;74.19;101017.16;5057103;28;20044;-69
2022/12/21 03:14:31;;;;;;;37.95;18.45;;;;;;;2.37;74.17;101014.78;5056758;28;20037;-70
2022/12/21 03:17:18;;;;;;;38.70;20.48;;;;;;;2.39;74.15;101005.09;5056693;28;20246;-70
2022/12/21 03:19:57;;;;;;;36.47;19.80;;;;;;;2.43;74.07;101008.41;5056522;28;20342;-68
2022/12/21 03:22:34;;;;;;;38.35;21.35;;;;;;;2.43;74.04;101001.41;5056514;28;20044;-69
2022/12/21 03:25:21;;;;;;;41.83;22.58;;;;;;;2.42;73.38;100996.25;5056511;28;20036;-69
2022/12/21 03:27:51;;;;;;;46.95;22.90;;;;;;;2.36;74.30;100993.94;5056837;28;20068;-71
2022/12/21 03:30:19;;;;;;;38.67;20.67;;;;;;;2.41;73.73;100994.56;5056595;28;20227;-69
2022/12/21 03:32:58;;;;;;;37.67;20.30;;;;;;;2.31;73.78;100988.97;5057411;28;20036;-65
2022/12/21 03:35:47;;;;;;;47.30;22.25;;;;;;;2.26;74.55;100985.75;5059856;28;20025;-66
2022/12/21 03:38:20;;;;;;;41.13;22.85;;;;;;;2.37;74.02;100988.66;5060278;28;20342;-65
2022/12/21 03:40:50;;;;;;;40.60;21.93;;;;;;;2.31;73.71;100981.13;5060064;28;20044;-65
2022/12/21 03:43:28;;;;;;;38.03;19.98;;;;;;;2.15;74.67;100982.84;5058764;28;20043;-66
2022/12/21 03:45:59;;;;;;;35.08;19.33;;;;;;;2.15;74.43;100982.84;5059670;28;20033;-65
2022/12/21 03:48:35;;;;;;;32.83;19.80;;;;;;;2.15;74.13;100988.06;5060116;28;20028;-65
2022/12/21 03:51:06;;;;;;;40.95;19.83;;;;;;;2.11;74.09;100974.31;5060222;28;20035;-64
2022/12/21 03:53:34;;;;;;;38.90;20.17;;;;;;;2.22;74.15;100977.22;5059001;28;20043;-65
2022/12/21 03:56:04;;;;;;;38.70;20.27;;;;;;;2.28;74.19;100980.44;5059655;28;20040;-65
2022/12/21 03:58:31;;;;;;;41.47;21.08;;;;;;;2.26;74.08;100983.13;5059408;28;20037;-66
2022/12/21 04:01:11;;;;;;;28.92;18.13;;;;;;;2.29;73.67;100982.97;5059475;28;20095;-65
2022/12/21 04:03:41;;;;;;;30.33;18.30;;;;;;;2.20;74.18;100986.91;5059485;28;20045;-65
2022/12/21 04:06:13;;;;;;;30.15;17.75;;;;;;;2.16;73.96;100981.91;5059214;28;20028;-65
2022/12/21 04:08:39;;;;;;;34.88;18.15;;;;;;;2.16;74.89;100982.75;5059253;28;20276;-65
2022/12/21 04:11:05;;;;;;;34.10;18.70;;;;;;;2.17;74.53;100979.22;5059557;28;20322;-65
2022/12/21 04:13:30;;;;;;;31.98;17.00;;;;;;;2.19;74.35;100985.22;5059418;28;20049;-65
2022/12/21 04:16:05;;;;;;;31.60;17.63;;;;;;;2.21;74.33;100977.28;5059474;28;20039;-66
2022/12/21 04:21:16;;;;;;;25.05;16.30;;;;;;;2.23;73.89;100976.28;5059489;28;20036;-66
2022/12/21 04:29:10;;;;;;;29.58;16.83;;;;;;;2.31;73.67;100975.91;5059694;28;20044;-64
2022/12/21 04:31:35;;;;;;;24.77;15.85;;;;;;;2.35;73.69;100974.81;5058911;28;20033;-65
2022/12/21 04:34:01;;;;;;;28.63;16.73;;;;;;;2.29;73.08;100976.91;5058695;28;20131;-64
2022/12/21 04:39:11;;;;;;;;;;;;;;;2.33;73.37;100968.81;5059548;28;20036;-65
2022/12/21 04:41:36;;;;;;;33.55;17.52;;;;;;;2.32;73.41;100971.50;5058746;28;20130;-65
2022/12/21 04:44:02;;;;;;;31.45;18.27;;;;;;;2.21;73.70;100974.69;5058513;28;20033;-69
2022/12/21 04:46:28;;;;;;;29.65;17.25;;;;;;;2.18;73.89;100967.84;5058625;28;20250;-71
2022/12/21 04:48:53;;;;;;;26.63;15.98;;;;;;;2.18;74.18;100967.84;5058513;28;20040;-70
2022/12/21 04:51:21;;;;;;;32.35;16.63;;;;;;;2.13;74.74;100971.63;5058785;28;20130;-69
2022/12/21 04:53:47;;;;;;;37.70;17.98;;;;;;;2.16;74.11;100974.91;5058453;28;20095;-70
2022/12/21 04:56:13;;;;;;;32.70;20.00;;;;;;;2.12;74.35;100964.69;5059052;28;20326;-70
2022/12/21 04:58:39;;;;;;;32.47;16.75;;;;;;;2.15;73.59;100960.16;5058509;28;20048;-69
2022/12/21 05:01:10;;;;;;;30.33;15.73;;;;;;;2.16;73.94;100953.16;5059185;28;20033;-69
2022/12/21 05:03:35;;;;;;;28.45;15.38;;;;;;;2.10;74.04;100958.72;5058434;28;20033;-69
2022/12/21 05:06:01;;;;;;;26.45;15.23;;;;;;;2.06;73.70;100960.59;5058083;28;20059;-69
2022/12/21 05:08:26;;;;;;;28.73;17.60;;;;;;;2.06;73.67;100957.16;5057910;28;20249;-69
2022/12/21 05:10:52;;;;;;;28.45;16.65;;;;;;;2.00;73.70;100962.69;5058705;28;20529;-70
2022/12/21 05:13:17;;;;;;;32.30;17.13;;;;;;;1.94;73.47;100958.63;5058219;28;20096;-69
2022/12/21 05:15:43;;;;;;;32.90;15.95;;;;;;;1.94;73.81;100948.16;5058349;28;20120;-69
2022/12/21 05:18:10;;;;;;;28.75;15.20;;;;;;;2.04;74.30;100948.53;5057758;28;20037;-69
2022/12/21 05:20:37;;;;;;;30.15;15.73;;;;;;;1.80;74.05;100948.03;5041016;28;20090;-70
2022/12/21 05:23:02;;;;;;;34.08;18.83;;;;;;;1.94;73.81;100945.56;5057988;28;20044;-71
2022/12/21 05:25:28;;;;;;;37.03;21.20;;;;;;;2.03;73.71;100946.84;5058131;28;20042;-69
2022/12/21 05:27:53;;;;;;;35.42;20.55;;;;;;;2.10;72.90;100941.25;5057918;28;20049;-69
2022/12/21 05:31:06;;;;;;;52.88;23.63;;;;;;;2.16;72.88;100940.94;5056569;28;20047;-69
2022/12/21 05:33:35;;;;;;;127.93;50.55;;;;;;;2.17;72.37;100939.19;5012992;28;20048;-70
2022/12/21 05:36:22;;;;;;;226.98;93.10;;;;;;;2.19;72.45;100934.72;5057247;28;20394;-69
2022/12/21 05:39:15;;;;;;;189.73;73.65;;;;;;;2.25;72.69;100931.78;4966810;28;20054;-69
2022/12/21 05:41:50;;;;;;;66.97;29.67;;;;;;;2.14;72.33;100931.50;4964507;28;20054;-69
2022/12/21 05:44:15;;;;;;;87.10;39.40;;;;;;;2.14;71.66;100937.56;4996800;28;20061;-70
2022/12/21 05:46:41;;;;;;;77.13;32.00;;;;;;;2.18;71.67;100938.25;4996425;28;20377;-71
2022/12/21 05:49:06;;;;;;;62.75;29.15;;;;;;;2.16;72.25;100929.66;4996592;28;20107;-69
2022/12/21 05:51:32;;;;;;;72.93;32.17;;;;;;;2.23;71.52;100928.41;4996924;28;20406;-69
2022/12/21 05:53:57;;;;;;;58.78;26.75;;;;;;;2.28;71.74;100931.63;4996658;28;20259;-71
2022/12/21 05:56:23;;;;;;;30.83;17.80;;;;;;;2.29;71.51;100935.09;4996311;28;20046;-70
2022/12/21 05:58:49;;;;;;;26.52;15.75;;;;;;;2.32;71.18;100932.31;4996409;28;20311;-69
2022/12/21 06:01:15;;;;;;;32.63;19.25;;;;;;;2.24;70.88;100930.09;4996381;28;20077;-68
2022/12/21 06:03:41;;;;;;;36.35;18.85;;;;;;;2.05;71.81;100924.09;4996160;28;20214;-68
2022/12/21 06:06:09;;;;;;;36.63;22.08;;;;;;;1.89;72.27;100934.50;4996231;28;20085;-71
2022/12/21 06:08:34;;;;;;;42.42;21.42;;;;;;;1.82;72.31;100922.66;4996347;28;20054;-70
2022/12/21 06:11:05;;;;;;;38.08;21.85;;;;;;;1.80;72.81;100919.28;4996620;28;20038;-69
2022/12/21 06:13:31;;;;;;;80.13;36.83;;;;;;;1.69;73.83;100929.44;4996184;28;20045;-69
2022/12/21 06:16:02;;;;;;;58.70;29.92;;;;;;;1.77;73.71;100928.13;5020605;28;20045;-70
2022/12/21 06:18:27;;;;;;;44.90;25.27;;;;;;;1.81;73.88;100931.44;5057729;28;20348;-70
2022/12/21 06:20:53;;;;;;;43.38;23.98;;;;;;;1.88;73.66;100924.97;5058441;28;20053;-65
2022/12/21 06:23:19;;;;;;;43.05;23.55;;;;;;;2.00;73.40;100937.41;5058000;28;20140;-65
2022/12/21 06:25:45;;;;;;;44.30;21.83;;;;;;;2.09;73.22;100921.28;5058014;28;20037;-65
2022/12/21 06:28:11;;;;;;;46.42;22.45;;;;;;;2.22;73.60;100926.72;5058063;28;20048;-66
2022/12/21 06:30:36;;;;;;;44.13;23.42;;;;;;;2.26;73.28;100924.78;5058016;28;20104;-65
2022/12/21 06:33:02;;;;;;;38.35;21.52;;;;;;;2.22;73.54;100924.94;5058050;28;20037;-65
2022/12/21 06:35:27;;;;;;;39.85;21.52;;;;;;;2.20;73.96;100925.97;5057762;28;20103;-64
2022/12/21 06:37:53;;;;;;;36.28;20.85;;;;;;;2.27;74.25;100927.31;5057796;28;20352;-65
2022/12/21 06:40:18;;;;;;;40.22;20.48;;;;;;;2.31;74.73;100926.25;5057973;28;20052;-65
2022/12/21 06:42:44;;;;;;;41.47;21.65;;;;;;;2.38;74.29;100919.75;5057966;28;20400;-65
2022/12/21 06:45:09;;;;;;;59.58;31.13;;;;;;;2.28;74.63;100907.25;5057865;28;20212;-65
2022/12/21 06:47:35;;;;;;;61.55;34.33;;;;;;;2.45;74.74;100907.22;5058016;28;20319;-65
2022/12/21 06:50:00;;;;;;;60.65;33.13;;;;;;;2.51;74.86;100906.88;5058378;28;20100;-65
2022/12/21 06:52:26;;;;;;;37.28;23.05;;;;;;;2.50;75.23;100905.19;5057822;28;20049;-65
2022/12/21 06:54:51;;;;;;;34.40;17.02;;;;;;;2.54;75.05;100911.94;5057451;28;20088;-65
2022/12/21 06:57:17;;;;;;;26.67;14.32;;;;;;;2.43;75.28;100902.06;5057963;28;20043;-65
2022/12/21 06:59:42;;;;;;;32.92;16.73;;;;;;;2.49;76.08;100895.66;5058145;28;20067;-65
2022/12/21 07:02:09;;;;;;;25.15;14.57;;;;;;;2.56;76.00;100899.63;5057726;28;20037;-64
2022/12/21 07:04:35;;;;;;;21.33;12.43;;;;;;;2.59;76.54;100899.47;5057807;28;20035;-65
2022/12/21 07:07:00;;;;;;;19.75;12.52;;;;;;;2.67;76.75;100893.81;5059242;28;20036;-64
2022/12/21 07:09:26;;;;;;;18.20;11.20;;;;;;;2.73;76.69;100896.09;5061489;28;20297;-64
2022/12/21 07:11:52;;;;;;;17.13;10.55;;;;;;;2.70;76.60;100893.66;5061691;28;20037;-66
2022/12/21 07:14:18;;;;;;;17.75;9.20;;;;;;;2.61;76.90;100896.75;5061913;28;20032;-65
2022/12/21 07:16:43;;;;;;;19.13;9.18;;;;;;;2.62;77.32;100888.84;5061380;28;20036;-62
2022/12/21 07:19:09;;;;;;;17.70;9.98;;;;;;;2.63;77.33;100877.44;5061349;28;20052;-62
2022/12/21 07:21:34;;;;;;;18.33;9.63;;;;;;;2.95;76.85;100880.06;5061765;28;20048;-62
2022/12/21 07:24:00;;;;;;;21.75;10.35;;;;;;;3.13;76.62;100881.66;5061495;28;20033;-62
2022/12/21 07:26:25;;;;;;;14.45;8.25;;;;;;;3.11;76.44;100884.34;5061579;28;20448;-63
2022/12/21 07:28:51;;;;;;;16.05;7.80;;;;;;;3.12;76.27;100879.94;5061452;28;20253;-62
2022/12/21 07:31:19;;;;;;;17.98;9.40;;;;;;;3.07;76.83;100866.28;5061547;28;20103;-61
2022/12/21 07:33:44;;;;;;;25.33;11.02;;;;;;;3.35;76.67;100878.66;5061003;28;20033;-63
2022/12/21 07:36:10;;;;;;;22.80;12.27;;;;;;;3.38;76.65;100866.25;5061059;28;20040;-63
2022/12/21 07:38:38;;;;;;;19.70;10.98;;;;;;;3.50;76.81;100873.38;5060907;28;20037;-62
2022/12/21 07:41:07;;;;;;;19.35;10.07;;;;;;;3.72;75.91;100879.97;5061053;28;20068;-63
2022/12/21 07:43:34;;;;;;;22.42;10.98;;;;;;;3.74;75.49;100880.72;5061371;28;20068;-62
2022/12/21 07:46:00;;;;;;;22.00;12.95;;;;;;;3.77;75.48;100877.94;5061483;28;20074;-63
2022/12/21 07:48:26;;;;;;;17.00;10.90;;;;;;;3.74;75.88;100880.72;5060917;28;20064;-62
2022/12/21 07:50:51;;;;;;;20.45;10.77;;;;;;;3.60;76.14;100883.31;5060558;28;20326;-62
2022/12/21 07:53:17;;;;;;;18.20;10.57;;;;;;;3.56;76.70;100874.81;5060678;28;20041;-62
2022/12/21 07:55:43;;;;;;;16.30;10.13;;;;;;;3.78;76.97;100877.00;5060704;28;20323;-63
2022/12/21 07:58:09;;;;;;;19.75;10.80;;;;;;;3.66;76.38;100878.56;5060022;28;20040;-64
2022/12/21 08:00:37;;;;;;;21.52;10.88;;;;;;;3.67;76.66;100876.78;5060996;28;20059;-63
2022/12/21 08:03:03;;;;;;;18.05;10.90;;;;;;;3.74;77.08;100878.97;5060202;28;20033;-63
2022/12/21 08:05:29;;;;;;;19.80;12.00;;;;;;;3.92;76.91;100881.41;5060388;28;20056;-62
2022/12/21 08:07:57;;;;;;;20.13;13.02;;;;;;;4.09;76.91;100879.47;5060808;28;20322;-62
2022/12/21 08:10:22;;;;;;;19.95;11.93;;;;;;;4.23;76.06;100878.66;5060409;28;20056;-62
2022/12/21 08:12:48;;;;;;;16.40;10.90;;;;;;;4.21;75.65;100887.53;5060856;28;20216;-62
2022/12/21 08:15:13;;;;;;;18.63;10.52;;;;;;;4.15;75.60;100876.47;5060654;28;20334;-62
2022/12/21 08:17:38;;;;;;;20.23;11.98;;;;;;;4.29;75.74;100880.06;5060265;28;20044;-62
2022/12/21 08:20:05;;;;;;;20.60;13.02;;;;;;;4.42;75.68;100878.34;5059492;28;20033;-63
2022/12/21 08:22:31;;;;;;;20.48;12.82;;;;;;;4.42;74.61;100876.56;5059874;28;20092;-62
2022/12/21 08:24:56;;;;;;;19.05;11.88;;;;;;;4.51;74.62;100875.16;5060231;28;20079;-62
2022/12/21 08:27:22;;;;;;;23.45;13.27;;;;;;;4.56;73.85;100883.59;5059954;28;20234;-65
2022/12/21 08:29:47;;;;;;;25.10;12.52;;;;;;;4.79;73.38;100876.88;5060392;28;20203;-64
2022/12/21 08:32:12;;;;;;;23.50;13.48;;;;;;;4.88;72.08;100871.06;5059465;28;20415;-65
2022/12/21 08:34:38;;;;;;;20.35;13.75;;;;;;;4.96;72.06;100873.19;5059592;28;20047;-65
2022/12/21 08:37:03;;;;;;;25.98;13.13;;;;;;;5.06;71.68;100869.88;5059715;28;20219;-65
2022/12/21 08:39:29;;;;;;;24.17;13.60;;;;;;;5.23;71.59;100862.69;5060202;28;20052;-66
2022/12/21 08:41:54;;;;;;;24.42;12.80;;;;;;;5.31;70.59;100863.03;5059860;28;20037;-64
2022/12/21 08:44:20;;;;;;;24.92;14.32;;;;;;;5.29;71.19;100862.31;5059920;28;20291;-65
2022/12/21 08:46:46;;;;;;;29.00;15.52;;;;;;;5.34;70.46;100854.97;5059802;28;20097;-66
2022/12/21 08:49:11;;;;;;;34.20;17.17;;;;;;;5.20;70.75;100841.88;5059749;28;20037;-64
2022/12/21 08:51:37;;;;;;;36.45;17.63;;;;;;;5.22;71.05;100837.38;5059905;28;20037;-66
2022/12/21 08:54:06;;;;;;;33.60;18.55;;;;;;;5.35;71.39;100835.63;5058946;28;20037;-65
2022/12/21 08:56:33;;;;;;;38.42;20.55;;;;;;;5.47;70.83;100815.59;5058834;28;20032;-64
2022/12/21 08:59:03;;;;;;;26.88;16.85;;;;;;;5.50;71.12;100818.84;5057919;28;20207;-64
2022/12/21 09:01:29;;;;;;;29.25;15.80;;;;;;;5.54;70.88;100815.06;5057672;28;20040;-64
2022/12/21 09:03:55;;;;;;;30.55;17.45;;;;;;;5.43;71.34;100802.66;5057943;28;20204;-64
2022/12/21 09:06:20;;;;;;;33.03;17.65;;;;;;;5.43;71.63;100802.66;5058196;28;20036;-66
2022/12/21 09:08:46;;;;;;;38.28;20.05;;;;;;;5.56;71.73;100792.16;5058575;28;20049;-64
2022/12/21 09:11:14;;;;;;;43.00;21.45;;;;;;;5.67;71.95;100794.06;5057435;28;20064;-65
2022/12/21 09:13:40;;;;;;;35.25;21.77;;;;;;;5.74;71.82;100787.44;5058187;28;20104;-65
2022/12/21 09:16:21;;;;;;;36.72;22.27;;;;;;;5.73;72.28;100781.34;5058117;28;20235;-66
2022/12/21 09:18:47;;;;;;;33.33;19.90;;;;;;;5.67;72.69;100780.91;5057858;28;20045;-65
2022/12/21 09:21:14;;;;;;;33.88;19.98;;;;;;;5.72;72.31;100777.03;5058344;28;20067;-64
2022/12/21 09:23:39;;;;;;;30.73;18.67;;;;;;;5.84;70.33;100780.59;5059074;28;20221;-64
2022/12/21 09:26:06;;;;;;;37.80;20.17;;;;;;;5.89;71.24;100775.00;5059099;28;20345;-64
2022/12/21 09:28:32;;;;;;;30.88;17.13;;;;;;;5.93;71.23;100772.09;5058969;28;20060;-65
2022/12/21 09:31:16;;;;;;;32.70;17.67;;;;;;;5.89;69.42;100761.88;5058927;28;20131;-65
2022/12/21 09:33:43;;;;;;;30.80;16.45;;;;;;;5.88;70.57;100757.56;5058938;28;20041;-66
2022/12/21 09:36:10;;;;;;;28.73;16.55;;;;;;;5.93;70.79;100760.75;5058913;28;20106;-65
2022/12/21 09:38:36;;;;;;;24.00;16.27;;;;;;;5.83;70.79;100744.75;5059146;28;20048;-64
2022/12/21 09:41:21;;;;;;;29.48;16.20;;;;;;;5.91;70.04;100752.97;5058780;28;20044;-65
2022/12/21 09:44:14;;;;;;;26.60;17.70;;;;;;;5.83;71.12;100743.91;5034879;28;20049;-65
2022/12/21 09:46:42;;;;;;;29.15;16.45;;;;;;;5.90;71.34;100742.56;5052277;28;20049;-64
2022/12/21 09:49:21;;;;;;;26.85;16.33;;;;;;;5.95;70.66;100741.28;5058055;28;20029;-65
2022/12/21 09:51:56;;;;;;;25.52;16.55;;;;;;;6.06;70.69;100736.09;5057799;28;20033;-65
2022/12/21 09:54:46;;;;;;;25.73;15.43;;;;;;;6.20;69.83;100731.66;5058646;28;20318;-65
2022/12/21 09:57:13;;;;;;;26.10;15.88;;;;;;;6.16;70.50;100733.66;5057844;28;20040;-66
2022/12/21 09:59:41;;;;;;;23.95;15.82;;;;;;;6.13;69.39;100730.41;5058208;28;20057;-65
2022/12/21 10:02:21;;;;;;;26.92;16.02;;;;;;;6.26;69.65;100725.97;5058208;28;20032;-66
2022/12/21 10:05:18;;;;;;;26.08;15.35;;;;;;;6.31;69.34;100723.84;5057794;28;20338;-66
2022/12/21 10:08:09;;;;;;;27.02;14.43;;;;;;;6.37;68.84;100723.41;5049437;28;20055;-65
2022/12/21 10:11:15;;;;;;;51.67;23.63;;;;;;;6.34;67.61;100721.84;5058086;28;20054;-65
2022/12/21 10:14:05;;;;;;;25.65;13.32;;;;;;;6.26;67.05;100710.19;5058079;28;20044;-65
2022/12/21 10:17:01;;;;;;;18.63;12.75;;;;;;;6.13;68.27;100706.75;5057198;28;20240;-65
2022/12/21 10:19:40;;;;;;;27.73;14.70;;;;;;;6.17;69.02;100703.78;5057249;28;20075;-65
2022/12/21 10:22:13;;;;;;;26.17;14.25;;;;;;;6.13;68.45;100698.84;5057080;28;20041;-65
2022/12/21 10:24:52;;;;;;;23.75;14.00;;;;;;;6.16;68.25;100688.94;5057241;28;20044;-65
2022/12/21 10:27:42;;;;;;;26.30;14.82;;;;;;;6.30;68.87;100690.63;5057003;28;20041;-65
2022/12/21 10:30:16;;;;;;;26.52;14.52;;;;;;;6.37;69.98;100676.91;5056626;28;20059;-65
2022/12/21 10:32:44;;;;;;;;;;;;;;;6.11;71.15;100679.72;5057396;28;20550;-64
2022/12/21 10:35:27;;;;;;;25.33;14.98;;;;;;;5.99;72.05;100673.56;5056110;28;19931;-64
2022/12/21 10:37:55;;;;;;;23.83;15.00;;;;;;;5.88;72.21;100673.44;5056865;28;20044;-65
2022/12/21 10:40:25;;;;;;;31.27;16.60;;;;;;;5.97;72.38;100675.44;5056785;28;20033;-65
2022/12/21 10:42:53;;;;;;;20.23;12.73;;;;;;;5.98;70.99;100675.34;5059706;28;20056;-65
2022/12/21 10:45:22;;;;;;;19.15;11.15;;;;;;;5.76;69.89;100675.16;5061291;28;20411;-64
2022/12/21 10:47:48;;;;;;;26.85;12.68;;;;;;;5.65;71.45;100661.94;5057771;28;20322;-64
2022/12/21 10:50:17;;;;;;;25.42;12.85;;;;;;;5.58;72.61;100652.81;5041092;28;20166;-65
2022/12/21 10:52:48;;;;;;;38.50;18.20;;;;;;;5.81;71.85;100651.19;5040224;28;20305;-65
2022/12/21 10:55:19;;;;;;;21.85;11.02;;;;;;;5.80;71.80;100650.34;5039866;28;20083;-65
2022/12/21 10:57:47;;;;;;;17.65;10.77;;;;;;;5.83;72.48;100647.50;5022183;28;20322;-65
2022/12/21 11:00:26;;;;;;;18.50;10.27;;;;;;;5.98;71.44;100641.16;5038935;28;20053;-66
2022/12/21 11:02:56;;;;;;;18.33;11.15;;;;;;;5.89;72.19;100626.06;5040972;28;20041;-64
2022/12/21 11:05:35;;;;;;;21.25;11.88;;;;;;;5.86;72.46;100635.91;5040305;28;20331;-66
2022/12/21 11:08:13;;;;;;;16.58;10.98;;;;;;;5.96;71.84;100629.09;5042259;28;20029;-64
2022/12/21 11:10:41;;;;;;;13.63;9.00;;;;;;;5.95;71.03;100620.34;5040182;28;20288;-65
2022/12/21 11:13:07;;;;;;;18.98;12.00;;;;;;;6.10;70.80;100623.66;5040380;28;20032;-70
2022/12/21 11:15:33;;;;;;;15.52;10.02;;;;;;;6.01;71.46;100617.28;5039444;28;20064;-70
2022/12/21 11:17:59;;;;;;;16.50;9.32;;;;;;;6.07;70.14;100616.84;5038911;28;20060;-72
2022/12/21 11:20:26;;;;;;;16.48;10.07;;;;;;;6.13;71.90;100610.28;5039919;28;20041;-70
2022/12/21 11:22:55;;;;;;;14.68;9.00;;;;;;;6.16;71.60;100609.22;5039956;28;20033;-70
2022/12/21 11:25:26;;;;;;;16.15;9.45;;;;;;;6.23;71.72;100611.28;5021124;28;20053;-70
2022/12/21 11:27:58;;;;;;;17.17;9.50;;;;;;;6.28;71.56;100603.94;5040173;28;20035;-70
2022/12/21 11:30:31;;;;;;;15.55;10.07;;;;;;;6.11;71.59;100595.56;5040756;28;20037;-72
2022/12/21 11:32:59;;;;;;;20.33;11.27;;;;;;;6.14;72.11;100585.66;5040384;28;20251;-71
2022/12/21 11:35:27;;;;;;;21.00;11.27;;;;;;;6.34;70.48;100595.59;5039378;28;20104;-69
2022/12/21 11:37:55;;;;;;;21.70;12.18;;;;;;;6.26;73.12;100584.78;5040588;28;20351;-69
2022/12/21 11:40:22;;;;;;;21.60;10.52;;;;;;;6.37;70.88;100592.72;5041442;28;20256;-69
2022/12/21 11:42:59;;;;;;;16.33;9.10;;;;;;;6.08;73.14;100580.88;5040777;28;20235;-69
2022/12/21 11:45:48;;;;;;;18.75;10.65;;;;;;;5.92;73.85;100582.94;5040226;28;20116;-71
2022/12/21 11:48:35;;;;;;;12.70;8.82;;;;;;;6.09;72.21;100577.28;5035071;28;20233;-71
2022/12/21 11:51:24;;;;;;;17.73;9.48;;;;;;;6.22;71.42;100571.94;5039975;28;20060;-70